Filia Ariea — PIET — position and weather

sailwx.info

Track history (hours):
 
Tides and Currents Weather Stations Pressure Air Temp Water Temp Dewpoint Dewpoint Depression Visibility Wind Speed Wind Dir Waves Ship Positions

Filia Ariea

Last reported at 2015-Feb-28 21:06 UTC. Time now 2015-Mar-01 03:05 UTC.
Position N 42°14' E 005°15'.

Length 90 m; draft 4.7 m.

Type: Cargo ship. MMSI: 244662000.

Date/timePositionNaut miles runAvg speedWind from/ knotsBaromVisibWave heightAir tempDewpointWater temp
2015-Feb-28 21:06N 42°14' E 005°15'810.1
2015-Feb-28 20:18N 42°12' E 005°04'810.0
2015-Feb-28 19:33N 42°10' E 004°54'1110.0
2015-Feb-28 18:28N 42°07' E 004°40'910.2
2015-Feb-28 17:32N 42°05' E 004°28'1010.2
2015-Feb-28 16:33N 42°04' E 004°14'10 9.3
2015-Feb-28 15:31N 42°03' E 004°01'9 8.9
2015-Feb-28 14:33N 42°02' E 003°50'9 8.3
2015-Feb-28 13:29N 41°59' E 003°39'9 8.4
2015-Feb-28 12:28N 41°55' E 003°29'10 8.3
2015-Feb-28 11:13N 41°50' E 003°16'7 9.2
2015-Feb-28 10:27N 41°47' E 003°08'12 9.3
2015-Feb-28 09:09N 41°39' E 002°55'27 9.1
2015-Feb-28 06:12N 41°23' E 002°26'53 9.0
2015-Feb-28 00:19N 40°53' E 001°29'  
2015-Feb-25 04:25N 38°00' W 000°08'1210.4
2015-Feb-25 03:16N 37°50' W 000°16'7 9.7
2015-Feb-25 02:33N 37°45' W 000°21'10 9.8
2015-Feb-25 01:33N 37°36' W 000°28'1210.4
2015-Feb-25 00:22N 37°28' W 000°39'1011.0
2015-Feb-24 23:27N 37°23' W 000°50'1011.4
2015-Feb-24 22:33N 37°17' W 001°01'215 5.8
2015-Feb-23 09:11N 35°59' W 005°11'913.7
2015-Feb-23 08:34N 35°58' W 005°21'  
Track history (hours):
 
Tides and Currents Weather Stations Pressure Air Temp Water Temp Dewpoint Dewpoint Depression Visibility Wind Speed Wind Dir Waves Ship Positions

Filia Ariea

Last reported at 2015-Feb-28 21:06 UTC. Time now 2015-Mar-01 03:05 UTC.
Position N 42°14' E 005°15'.

Length 90 m; draft 4.7 m.

Type: Cargo ship. MMSI: 244662000.

Date/timePositionNaut miles runAvg speedWind from/ knotsBaromVisibWave heightAir tempDewpointWater temp
2015-Feb-28 21:06N 42°14' E 005°15'810.1
2015-Feb-28 20:18N 42°12' E 005°04'810.0
2015-Feb-28 19:33N 42°10' E 004°54'1110.0
2015-Feb-28 18:28N 42°07' E 004°40'910.2
2015-Feb-28 17:32N 42°05' E 004°28'1010.2
2015-Feb-28 16:33N 42°04' E 004°14'10 9.3
2015-Feb-28 15:31N 42°03' E 004°01'9 8.9
2015-Feb-28 14:33N 42°02' E 003°50'9 8.3
2015-Feb-28 13:29N 41°59' E 003°39'9 8.4
2015-Feb-28 12:28N 41°55' E 003°29'10 8.3
2015-Feb-28 11:13N 41°50' E 003°16'7 9.2
2015-Feb-28 10:27N 41°47' E 003°08'12 9.3
2015-Feb-28 09:09N 41°39' E 002°55'27 9.1
2015-Feb-28 06:12N 41°23' E 002°26'53 9.0
2015-Feb-28 00:19N 40°53' E 001°29'  
2015-Feb-25 04:25N 38°00' W 000°08'1210.4
2015-Feb-25 03:16N 37°50' W 000°16'7 9.7
2015-Feb-25 02:33N 37°45' W 000°21'10 9.8
2015-Feb-25 01:33N 37°36' W 000°28'1210.4
2015-Feb-25 00:22N 37°28' W 000°39'1011.0
2015-Feb-24 23:27N 37°23' W 000°50'1011.4
2015-Feb-24 22:33N 37°17' W 001°01'215 5.8
2015-Feb-23 09:11N 35°59' W 005°11'913.7
2015-Feb-23 08:34N 35°58' W 005°21'  

Dump ship's entire track history